createdAt,value
2022-11-21T00:01:30.889Z,50.10
2022-11-21T00:06:30.530Z,50.00
2022-11-21T00:11:30.662Z,48.80
2022-11-21T00:16:31.018Z,48.40
2022-11-21T00:21:30.448Z,50.80
2022-11-21T00:26:30.788Z,50.40
2022-11-21T00:31:30.887Z,48.00
2022-11-21T00:36:30.437Z,51.00
2022-11-21T00:41:30.490Z,52.60
2022-11-21T00:46:30.960Z,50.90
2022-11-21T00:51:30.613Z,53.40
2022-11-21T00:56:30.708Z,51.80
2022-11-21T01:01:30.932Z,52.60
2022-11-21T01:06:30.569Z,51.60
2022-11-21T01:11:31.333Z,51.70
2022-11-21T01:16:30.650Z,51.30
2022-11-21T01:21:34.063Z,53.00
2022-11-21T01:26:32.060Z,52.70
2022-11-21T01:31:31.215Z,51.00
2022-11-21T01:36:32.069Z,53.00
2022-11-21T01:41:34.440Z,52.30
2022-11-21T01:46:30.720Z,54.70
2022-11-21T01:51:33.836Z,54.20
2022-11-21T01:56:38.588Z,52.80
2022-11-21T02:01:34.164Z,54.90
2022-11-21T02:06:32.863Z,53.60
2022-11-21T02:11:35.713Z,55.10
2022-11-21T02:16:33.750Z,55.00
2022-11-21T02:21:44.915Z,52.20
2022-11-21T02:26:30.443Z,54.10
2022-11-21T02:31:30.675Z,53.90
2022-11-21T02:36:41.838Z,54.90
2022-11-21T02:41:34.417Z,55.90
2022-11-21T02:46:33.798Z,54.40
2022-11-21T02:51:30.317Z,55.20
2022-11-21T02:56:30.404Z,54.40
2022-11-21T03:01:30.619Z,53.50
2022-11-21T03:06:30.284Z,57.10
2022-11-21T03:11:30.736Z,56.30
2022-11-21T03:16:30.802Z,56.30
2022-11-21T03:21:30.303Z,55.00
2022-11-21T03:26:30.474Z,56.00
2022-11-21T03:31:30.552Z,56.20
2022-11-21T03:36:30.528Z,53.60
2022-11-21T03:41:30.418Z,55.30
2022-11-21T03:46:33.430Z,55.30
2022-11-21T03:51:30.881Z,54.90
2022-11-21T03:56:30.828Z,56.80
2022-11-21T04:01:36.217Z,55.40
2022-11-21T04:06:30.630Z,54.40
2022-11-21T04:11:30.533Z,56.70
2022-11-21T04:16:31.057Z,52.10
2022-11-21T04:21:30.205Z,57.50
2022-11-21T04:26:30.533Z,58.40
2022-11-21T04:31:31.041Z,57.20
2022-11-21T04:36:30.447Z,56.20
2022-11-21T04:41:30.479Z,57.10
2022-11-21T04:46:30.756Z,58.00
2022-11-21T04:51:30.205Z,58.30
2022-11-21T04:56:30.417Z,55.20
2022-11-21T05:01:30.671Z,61.10
2022-11-21T05:06:30.205Z,56.10
2022-11-21T05:11:40.108Z,58.10
2022-11-21T05:16:31.490Z,57.50
2022-11-21T05:21:30.218Z,58.20
2022-11-21T05:26:30.147Z,56.90
2022-11-21T05:31:30.775Z,59.10
2022-11-21T05:36:30.237Z,63.10
2022-11-21T05:41:30.447Z,61.00
2022-11-21T05:46:30.564Z,60.70
2022-11-21T05:51:30.279Z,57.80
2022-11-21T05:56:30.651Z,58.30
2022-11-21T06:01:40.055Z,59.50
2022-11-21T06:06:30.183Z,57.30
2022-11-21T06:11:30.401Z,57.40
2022-11-21T06:16:30.672Z,57.80
2022-11-21T06:21:30.562Z,59.60
2022-11-21T06:26:30.103Z,61.70
2022-11-21T06:31:30.886Z,61.10
2022-11-21T06:36:30.129Z,58.50
2022-11-21T06:41:31.320Z,68.80
2022-11-21T06:46:30.490Z,60.10
2022-11-21T06:51:32.374Z,62.40
2022-11-21T06:56:30.861Z,59.20
2022-11-21T07:01:30.830Z,58.90
2022-11-21T07:06:30.104Z,58.50
2022-11-21T07:11:30.133Z,56.20
2022-11-21T07:16:31.624Z,55.10
2022-11-21T07:21:30.063Z,66.50
2022-11-21T07:26:30.293Z,56.60
2022-11-21T07:31:31.112Z,53.30
2022-11-21T07:36:32.613Z,54.70
2022-11-21T07:41:30.032Z,54.00
2022-11-21T07:46:30.680Z,54.40
2022-11-21T07:51:30.050Z,53.90
2022-11-21T07:56:30.279Z,55.40
2022-11-21T08:01:31.056Z,52.30
2022-11-21T08:06:30.097Z,51.20
2022-11-21T08:11:31.550Z,48.90
2022-11-21T08:16:31.910Z,50.50
2022-11-21T08:21:30.431Z,50.30
2022-11-21T08:26:30.296Z,51.40
2022-11-21T08:31:30.671Z,49.50
2022-11-21T08:36:30.060Z,47.30
2022-11-21T08:41:40.050Z,45.60
2022-11-21T08:46:32.669Z,49.30
2022-11-21T08:51:30.423Z,50.00
2022-11-21T08:56:30.173Z,48.10
2022-11-21T09:01:30.704Z,48.00
2022-11-21T09:06:30.492Z,48.60
2022-11-21T09:08:31.444Z,48.10
2022-11-21T09:11:32.649Z,48.10
2022-11-21T09:16:40.061Z,45.90
2022-11-21T09:21:30.172Z,46.10
2022-11-21T09:26:31.103Z,47.50
2022-11-21T09:31:30.068Z,43.10
2022-11-21T09:36:30.846Z,42.10
2022-11-21T09:41:45.749Z,39.50
2022-11-21T09:46:36.890Z,39.10
2022-11-21T09:51:31.427Z,38.00
2022-11-21T09:56:32.819Z,38.30
2022-11-21T10:01:30.285Z,40.60
2022-11-21T10:06:35.906Z,39.30
2022-11-21T10:11:50.450Z,40.10
2022-11-21T10:16:42.262Z,42.40
2022-11-21T10:21:43.920Z,37.30
2022-11-21T10:26:39.859Z,38.00
2022-11-21T10:31:37.341Z,35.70
2022-11-21T10:36:35.858Z,33.40
2022-11-21T10:41:39.977Z,35.20
2022-11-21T10:46:29.924Z,32.90
2022-11-21T10:51:37.605Z,35.00
2022-11-21T10:56:34.154Z,33.80
2022-11-21T11:01:32.381Z,33.90
2022-11-21T11:06:30.631Z,34.40
2022-11-21T11:11:31.255Z,49.60
2022-11-21T11:16:40.150Z,43.20
2022-11-21T11:21:43.301Z,35.80
2022-11-21T11:26:30.861Z,33.40
2022-11-21T11:31:39.643Z,33.20
2022-11-21T11:36:36.226Z,39.20
2022-11-21T11:41:58.081Z,34.20
2022-11-21T11:46:49.252Z,42.00
2022-11-21T11:51:35.801Z,40.20
2022-11-21T11:56:33.568Z,47.30
2022-11-21T12:01:37.779Z,44.80
2022-11-21T12:07:10.634Z,43.40
2022-11-21T12:11:47.027Z,44.70
2022-11-21T12:16:30.426Z,40.20
2022-11-21T12:21:30.594Z,39.40
2022-11-21T12:26:39.717Z,41.70
2022-11-21T12:31:44.908Z,36.80
2022-11-21T12:36:38.024Z,32.00
2022-11-21T12:41:46.082Z,34.70
2022-11-21T12:46:38.752Z,32.90
2022-11-21T12:51:50.857Z,42.90
2022-11-21T12:56:39.630Z,33.50
2022-11-21T13:01:38.753Z,35.40
2022-11-21T13:06:35.507Z,35.60
2022-11-21T13:11:50.886Z,36.60
2022-11-21T13:16:41.881Z,36.60
2022-11-21T13:21:41.150Z,38.10
2022-11-21T13:26:49.724Z,35.30
2022-11-21T13:31:32.136Z,35.30
2022-11-21T13:36:36.173Z,34.40
2022-11-21T13:41:59.463Z,34.30
2022-11-21T13:46:49.610Z,37.90
2022-11-21T13:51:48.314Z,35.40
2022-11-21T13:56:39.224Z,35.40
2022-11-21T14:01:46.890Z,37.60
2022-11-21T14:06:33.839Z,38.10
2022-11-21T14:11:35.428Z,39.90
2022-11-21T14:16:35.916Z,43.90
2022-11-21T14:21:32.053Z,43.80
2022-11-21T14:26:34.634Z,45.50
2022-11-21T14:31:44.091Z,52.30
2022-11-21T14:36:29.935Z,43.50
2022-11-21T14:41:31.781Z,45.90
2022-11-21T14:46:31.859Z,45.70
2022-11-21T14:51:29.903Z,49.30
2022-11-21T14:56:33.224Z,45.80
2022-11-21T15:01:32.167Z,48.30
2022-11-21T15:06:39.032Z,47.50
2022-11-21T15:11:37.353Z,47.70
2022-11-21T15:16:30.190Z,49.70
2022-11-21T15:21:29.772Z,48.60
2022-11-21T15:26:31.934Z,47.90
2022-11-21T15:31:29.719Z,48.60
2022-11-21T15:36:32.584Z,48.50
2022-11-21T15:41:31.539Z,47.60
2022-11-21T15:46:31.422Z,48.60
2022-11-21T15:52:05.985Z,55.20
2022-11-21T15:56:30.076Z,48.40
2022-11-21T16:01:30.391Z,48.70
2022-11-21T16:06:30.266Z,48.50
2022-11-21T16:11:31.570Z,46.90
2022-11-21T16:16:31.723Z,50.00
2022-11-21T16:21:29.924Z,47.30
2022-11-21T16:26:30.312Z,45.60
2022-11-21T16:31:30.599Z,46.10
2022-11-21T16:36:31.412Z,54.10
2022-11-21T16:41:30.581Z,47.30
2022-11-21T16:46:29.702Z,47.00
2022-11-21T16:51:30.188Z,48.20
2022-11-21T16:56:31.922Z,47.10
2022-11-21T17:01:29.796Z,48.70
2022-11-21T17:06:30.638Z,46.10
2022-11-21T17:11:30.857Z,47.60
2022-11-21T17:16:30.312Z,48.60
2022-11-21T17:21:30.529Z,48.80
2022-11-21T17:26:30.370Z,49.70
2022-11-21T17:31:30.930Z,53.30
2022-11-21T17:41:30.825Z,47.90
2022-11-21T17:46:29.589Z,50.10
2022-11-21T17:51:32.543Z,50.30
2022-11-21T17:56:31.701Z,48.20
2022-11-21T18:01:29.890Z,47.80
2022-11-21T18:06:33.351Z,50.70
2022-11-21T18:11:37.866Z,49.00
2022-11-21T18:16:31.545Z,49.50
2022-11-21T18:21:31.589Z,50.50
2022-11-21T18:26:31.796Z,48.60
2022-11-21T18:31:30.221Z,50.60
2022-11-21T18:36:30.811Z,49.00
2022-11-21T18:41:33.263Z,49.80
2022-11-21T18:46:31.804Z,48.40
2022-11-21T18:51:30.511Z,49.20
2022-11-21T18:56:30.724Z,48.80
2022-11-21T19:01:31.158Z,49.80
2022-11-21T19:06:29.746Z,48.40
2022-11-21T19:11:30.312Z,50.50
2022-11-21T19:16:33.008Z,50.30
2022-11-21T19:21:29.545Z,51.80
2022-11-21T19:26:30.842Z,50.50
2022-11-21T19:31:29.549Z,47.60
2022-11-21T19:36:29.717Z,48.00
2022-11-21T19:41:30.534Z,49.50
2022-11-21T19:46:31.464Z,49.80
2022-11-21T19:51:31.880Z,47.40
2022-11-21T19:56:30.635Z,48.40
2022-11-21T20:01:31.510Z,47.10
2022-11-21T20:06:32.499Z,52.60
2022-11-21T20:11:30.973Z,48.00
2022-11-21T20:16:31.695Z,48.80
2022-11-21T20:21:29.673Z,48.40
2022-11-21T20:26:30.433Z,47.10
2022-11-21T20:31:31.721Z,45.80
2022-11-21T20:36:32.135Z,44.60
2022-11-21T20:41:31.854Z,44.20
2022-11-21T20:46:29.559Z,45.70
2022-11-21T20:56:31.143Z,45.90
2022-11-21T21:01:30.419Z,46.80
2022-11-21T21:06:29.653Z,48.10
2022-11-21T21:11:51.531Z,50.00
2022-11-21T21:16:33.277Z,52.30
2022-11-21T21:21:29.736Z,51.70
2022-11-21T21:26:37.285Z,51.80
2022-11-21T21:31:29.851Z,54.20
2022-11-21T21:36:31.209Z,53.80
2022-11-21T21:41:30.826Z,54.60
2022-11-21T21:46:29.410Z,56.10
2022-11-21T21:51:30.807Z,57.30
2022-11-21T21:56:30.028Z,52.90
2022-11-21T22:01:31.169Z,52.50
2022-11-21T22:06:32.268Z,53.30
2022-11-21T22:11:34.485Z,52.30
2022-11-21T22:16:29.769Z,49.40
2022-11-21T22:21:31.561Z,51.20
2022-11-21T22:26:29.673Z,51.50
2022-11-21T22:31:30.382Z,49.10
2022-11-21T22:36:29.506Z,50.30
2022-11-21T22:41:30.321Z,50.30
2022-11-21T22:46:30.198Z,49.50
2022-11-21T22:51:32.325Z,50.40
2022-11-21T22:56:29.445Z,51.30
2022-11-21T23:01:31.843Z,50.50
2022-11-21T23:06:30.177Z,48.80
2022-11-21T23:11:33.727Z,49.40
2022-11-21T23:16:29.732Z,48.80
2022-11-21T23:21:30.258Z,48.30
2022-11-21T23:26:29.381Z,48.20
2022-11-21T23:31:29.767Z,46.70
2022-11-21T23:36:31.821Z,45.10
2022-11-21T23:41:29.977Z,46.30
2022-11-21T23:46:29.484Z,46.50
2022-11-21T23:51:30.169Z,45.20
2022-11-21T23:56:29.521Z,45.90
